sensor_id;sensor_type;location;lat;lon;timestamp;P1;durP1;ratioP1;P2;durP2;ratioP2
69703;SDS011;56967;43.538;-5.646;2022-09-24T00:00:53;3.75;;;1.70;;
69703;SDS011;56967;43.538;-5.646;2022-09-24T00:03:19;4.20;;;2.05;;
69703;SDS011;56967;43.538;-5.646;2022-09-24T00:05:46;5.10;;;1.80;;
69703;SDS011;56967;43.538;-5.646;2022-09-24T00:08:13;4.95;;;2.10;;
69703;SDS011;56967;43.538;-5.646;2022-09-24T00:10:41;5.65;;;2.42;;
69703;SDS011;56967;43.538;-5.646;2022-09-24T00:13:10;7.00;;;3.33;;
69703;SDS011;56967;43.538;-5.646;2022-09-24T00:15:38;5.00;;;3.03;;
69703;SDS011;56967;43.538;-5.646;2022-09-24T00:18:06;6.35;;;3.10;;
69703;SDS011;56967;43.538;-5.646;2022-09-24T00:20:32;5.45;;;3.50;;
69703;SDS011;56967;43.538;-5.646;2022-09-24T00:22:59;6.68;;;3.05;;
69703;SDS011;56967;43.538;-5.646;2022-09-24T00:25:25;5.97;;;2.92;;
69703;SDS011;56967;43.538;-5.646;2022-09-24T00:28:10;4.55;;;3.20;;
69703;SDS011;56967;43.538;-5.646;2022-09-24T00:30:37;7.03;;;2.67;;
69703;SDS011;56967;43.538;-5.646;2022-09-24T00:33:04;3.55;;;2.55;;
69703;SDS011;56967;43.538;-5.646;2022-09-24T00:35:32;7.32;;;2.90;;
69703;SDS011;56967;43.538;-5.646;2022-09-24T00:37:59;5.60;;;3.28;;
69703;SDS011;56967;43.538;-5.646;2022-09-24T00:40:28;4.95;;;3.22;;
69703;SDS011;56967;43.538;-5.646;2022-09-24T00:42:54;4.97;;;3.22;;
69703;SDS011;56967;43.538;-5.646;2022-09-24T00:45:20;5.03;;;3.22;;
69703;SDS011;56967;43.538;-5.646;2022-09-24T00:47:46;5.32;;;3.72;;
69703;SDS011;56967;43.538;-5.646;2022-09-24T00:55:23;7.13;;;4.68;;
69703;SDS011;56967;43.538;-5.646;2022-09-24T00:57:51;6.97;;;5.13;;
69703;SDS011;56967;43.538;-5.646;2022-09-24T01:00:20;6.38;;;3.90;;
69703;SDS011;56967;43.538;-5.646;2022-09-24T01:02:46;5.68;;;3.70;;
69703;SDS011;56967;43.538;-5.646;2022-09-24T01:05:15;5.70;;;3.97;;
69703;SDS011;56967;43.538;-5.646;2022-09-24T01:07:41;7.03;;;3.65;;
69703;SDS011;56967;43.538;-5.646;2022-09-24T01:10:07;7.25;;;4.35;;
69703;SDS011;56967;43.538;-5.646;2022-09-24T01:15:04;7.32;;;4.82;;
69703;SDS011;56967;43.538;-5.646;2022-09-24T01:17:57;8.15;;;5.25;;
69703;SDS011;56967;43.538;-5.646;2022-09-24T01:31:40;6.00;;;3.20;;
69703;SDS011;56967;43.538;-5.646;2022-09-24T01:34:12;7.03;;;3.33;;
69703;SDS011;56967;43.538;-5.646;2022-09-24T01:36:41;7.65;;;3.50;;
69703;SDS011;56967;43.538;-5.646;2022-09-24T01:39:09;9.20;;;3.70;;
69703;SDS011;56967;43.538;-5.646;2022-09-24T01:41:38;6.43;;;3.28;;
69703;SDS011;56967;43.538;-5.646;2022-09-24T01:44:06;5.13;;;3.15;;
69703;SDS011;56967;43.538;-5.646;2022-09-24T01:46:35;6.18;;;3.10;;
69703;SDS011;56967;43.538;-5.646;2022-09-24T01:49:02;3.88;;;2.55;;
69703;SDS011;56967;43.538;-5.646;2022-09-24T01:51:32;6.45;;;3.15;;
69703;SDS011;56967;43.538;-5.646;2022-09-24T01:54:07;7.05;;;3.15;;
69703;SDS011;56967;43.538;-5.646;2022-09-24T01:56:41;5.90;;;3.20;;
69703;SDS011;56967;43.538;-5.646;2022-09-24T01:59:27;9.18;;;3.40;;
69703;SDS011;56967;43.538;-5.646;2022-09-24T02:04:40;7.15;;;3.33;;
69703;SDS011;56967;43.538;-5.646;2022-09-24T02:07:11;5.72;;;3.03;;
69703;SDS011;56967;43.538;-5.646;2022-09-24T02:09:43;6.85;;;3.38;;
69703;SDS011;56967;43.538;-5.646;2022-09-24T02:12:10;9.05;;;3.20;;
69703;SDS011;56967;43.538;-5.646;2022-09-24T02:14:46;7.25;;;3.30;;
69703;SDS011;56967;43.538;-5.646;2022-09-24T02:17:15;6.18;;;2.90;;
69703;SDS011;56967;43.538;-5.646;2022-09-24T02:19:41;9.32;;;3.20;;
69703;SDS011;56967;43.538;-5.646;2022-09-24T02:22:09;14.60;;;3.20;;
69703;SDS011;56967;43.538;-5.646;2022-09-24T02:24:45;6.28;;;2.92;;
69703;SDS011;56967;43.538;-5.646;2022-09-24T02:29:39;8.88;;;3.55;;
69703;SDS011;56967;43.538;-5.646;2022-09-24T02:32:05;6.53;;;2.63;;
69703;SDS011;56967;43.538;-5.646;2022-09-24T02:34:35;10.07;;;3.22;;
69703;SDS011;56967;43.538;-5.646;2022-09-24T02:37:05;7.55;;;3.28;;
69703;SDS011;56967;43.538;-5.646;2022-09-24T02:39:35;8.23;;;3.20;;
69703;SDS011;56967;43.538;-5.646;2022-09-24T02:42:00;6.75;;;2.83;;
69703;SDS011;56967;43.538;-5.646;2022-09-24T02:44:29;18.25;;;3.38;;
69703;SDS011;56967;43.538;-5.646;2022-09-24T02:46:55;8.77;;;2.80;;
69703;SDS011;56967;43.538;-5.646;2022-09-24T02:49:21;7.97;;;2.70;;
69703;SDS011;56967;43.538;-5.646;2022-09-24T02:51:46;11.07;;;2.50;;
69703;SDS011;56967;43.538;-5.646;2022-09-24T02:54:12;10.18;;;3.08;;
69703;SDS011;56967;43.538;-5.646;2022-09-24T02:56:38;8.57;;;2.58;;
69703;SDS011;56967;43.538;-5.646;2022-09-24T02:59:03;13.88;;;2.90;;
69703;SDS011;56967;43.538;-5.646;2022-09-24T03:01:30;8.45;;;2.83;;
69703;SDS011;56967;43.538;-5.646;2022-09-24T03:03:56;7.45;;;2.70;;
69703;SDS011;56967;43.538;-5.646;2022-09-24T03:06:22;7.93;;;2.30;;
69703;SDS011;56967;43.538;-5.646;2022-09-24T03:08:49;11.85;;;2.75;;
69703;SDS011;56967;43.538;-5.646;2022-09-24T03:11:16;9.70;;;3.13;;
69703;SDS011;56967;43.538;-5.646;2022-09-24T03:13:41;6.82;;;2.42;;
69703;SDS011;56967;43.538;-5.646;2022-09-24T03:16:07;7.85;;;2.58;;
69703;SDS011;56967;43.538;-5.646;2022-09-24T03:18:32;6.03;;;2.40;;
69703;SDS011;56967;43.538;-5.646;2022-09-24T03:21:09;9.18;;;2.90;;
69703;SDS011;56967;43.538;-5.646;2022-09-24T03:23:36;9.68;;;2.33;;
69703;SDS011;56967;43.538;-5.646;2022-09-24T03:26:02;5.15;;;2.00;;
69703;SDS011;56967;43.538;-5.646;2022-09-24T03:28:28;8.30;;;2.35;;
69703;SDS011;56967;43.538;-5.646;2022-09-24T03:30:54;10.93;;;2.50;;
69703;SDS011;56967;43.538;-5.646;2022-09-24T03:33:27;5.97;;;2.00;;
69703;SDS011;56967;43.538;-5.646;2022-09-24T03:36:08;10.95;;;2.50;;
69703;SDS011;56967;43.538;-5.646;2022-09-24T03:38:35;9.02;;;2.67;;
69703;SDS011;56967;43.538;-5.646;2022-09-24T03:41:02;7.97;;;2.50;;
69703;SDS011;56967;43.538;-5.646;2022-09-24T03:43:29;10.48;;;2.40;;
69703;SDS011;56967;43.538;-5.646;2022-09-24T03:45:55;10.82;;;2.60;;
69703;SDS011;56967;43.538;-5.646;2022-09-24T03:48:21;8.85;;;2.33;;
69703;SDS011;56967;43.538;-5.646;2022-09-24T03:50:49;6.57;;;2.20;;
69703;SDS011;56967;43.538;-5.646;2022-09-24T03:53:15;9.32;;;2.20;;
69703;SDS011;56967;43.538;-5.646;2022-09-24T03:55:44;4.80;;;2.05;;
69703;SDS011;56967;43.538;-5.646;2022-09-24T03:58:15;7.68;;;2.17;;
69703;SDS011;56967;43.538;-5.646;2022-09-24T04:00:40;5.68;;;2.10;;
69703;SDS011;56967;43.538;-5.646;2022-09-24T04:03:06;6.55;;;1.92;;
69703;SDS011;56967;43.538;-5.646;2022-09-24T04:05:33;7.00;;;1.80;;
69703;SDS011;56967;43.538;-5.646;2022-09-24T04:07:58;4.90;;;1.70;;
69703;SDS011;56967;43.538;-5.646;2022-09-24T04:10:24;6.97;;;1.98;;
69703;SDS011;56967;43.538;-5.646;2022-09-24T04:12:51;7.00;;;1.50;;
69703;SDS011;56967;43.538;-5.646;2022-09-24T04:15:16;5.47;;;1.35;;
69703;SDS011;56967;43.538;-5.646;2022-09-24T04:17:49;4.53;;;1.17;;
69703;SDS011;56967;43.538;-5.646;2022-09-24T04:20:15;4.22;;;1.38;;
69703;SDS011;56967;43.538;-5.646;2022-09-24T04:22:43;4.97;;;1.33;;
69703;SDS011;56967;43.538;-5.646;2022-09-24T04:25:09;2.13;;;1.00;;
69703;SDS011;56967;43.538;-5.646;2022-09-24T04:27:34;6.32;;;1.48;;
69703;SDS011;56967;43.538;-5.646;2022-09-24T04:30:00;5.57;;;1.20;;
69703;SDS011;56967;43.538;-5.646;2022-09-24T04:32:29;6.25;;;1.45;;
69703;SDS011;56967;43.538;-5.646;2022-09-24T04:34:54;6.75;;;1.10;;
69703;SDS011;56967;43.538;-5.646;2022-09-24T04:37:20;5.53;;;2.00;;
69703;SDS011;56967;43.538;-5.646;2022-09-24T04:39:46;4.22;;;1.10;;
69703;SDS011;56967;43.538;-5.646;2022-09-24T04:42:15;2.53;;;0.95;;
69703;SDS011;56967;43.538;-5.646;2022-09-24T04:44:41;3.55;;;0.98;;
69703;SDS011;56967;43.538;-5.646;2022-09-24T04:47:11;4.50;;;1.00;;
69703;SDS011;56967;43.538;-5.646;2022-09-24T04:49:38;2.63;;;1.90;;
69703;SDS011;56967;43.538;-5.646;2022-09-24T04:52:04;3.10;;;1.23;;
69703;SDS011;56967;43.538;-5.646;2022-09-24T04:54:29;3.60;;;1.50;;
69703;SDS011;56967;43.538;-5.646;2022-09-24T04:56:55;3.00;;;1.08;;
69703;SDS011;56967;43.538;-5.646;2022-09-24T04:59:22;5.72;;;1.65;;
69703;SDS011;56967;43.538;-5.646;2022-09-24T05:01:47;3.20;;;1.33;;
69703;SDS011;56967;43.538;-5.646;2022-09-24T05:04:13;9.00;;;1.17;;
69703;SDS011;56967;43.538;-5.646;2022-09-24T05:06:39;3.22;;;1.20;;
69703;SDS011;56967;43.538;-5.646;2022-09-24T05:09:04;3.88;;;1.02;;
69703;SDS011;56967;43.538;-5.646;2022-09-24T05:11:30;2.63;;;1.00;;
69703;SDS011;56967;43.538;-5.646;2022-09-24T05:13:55;3.28;;;1.33;;
69703;SDS011;56967;43.538;-5.646;2022-09-24T05:16:21;2.97;;;1.27;;
69703;SDS011;56967;43.538;-5.646;2022-09-24T05:18:46;3.75;;;0.93;;
69703;SDS011;56967;43.538;-5.646;2022-09-24T05:21:12;5.82;;;1.08;;
69703;SDS011;56967;43.538;-5.646;2022-09-24T05:23:37;4.00;;;0.90;;
69703;SDS011;56967;43.538;-5.646;2022-09-24T05:26:03;1.95;;;1.00;;
69703;SDS011;56967;43.538;-5.646;2022-09-24T05:29:06;3.22;;;1.08;;
69703;SDS011;56967;43.538;-5.646;2022-09-24T05:31:32;3.10;;;1.10;;
69703;SDS011;56967;43.538;-5.646;2022-09-24T05:33:57;2.53;;;1.00;;
69703;SDS011;56967;43.538;-5.646;2022-09-24T05:36:23;5.75;;;1.20;;
69703;SDS011;56967;43.538;-5.646;2022-09-24T05:38:51;3.28;;;1.10;;
69703;SDS011;56967;43.538;-5.646;2022-09-24T05:41:17;3.95;;;0.95;;
69703;SDS011;56967;43.538;-5.646;2022-09-24T05:43:42;2.40;;;1.05;;
69703;SDS011;56967;43.538;-5.646;2022-09-24T05:46:08;3.50;;;1.08;;
69703;SDS011;56967;43.538;-5.646;2022-09-24T05:48:33;2.88;;;1.27;;
69703;SDS011;56967;43.538;-5.646;2022-09-24T05:50:59;6.20;;;2.33;;
69703;SDS011;56967;43.538;-5.646;2022-09-24T05:53:26;4.25;;;2.28;;
69703;SDS011;56967;43.538;-5.646;2022-09-24T05:55:51;6.90;;;2.33;;
69703;SDS011;56967;43.538;-5.646;2022-09-24T05:58:17;5.32;;;2.03;;
69703;SDS011;56967;43.538;-5.646;2022-09-24T06:00:42;5.40;;;1.95;;
69703;SDS011;56967;43.538;-5.646;2022-09-24T06:03:13;5.25;;;1.85;;
69703;SDS011;56967;43.538;-5.646;2022-09-24T06:05:47;4.90;;;1.70;;
69703;SDS011;56967;43.538;-5.646;2022-09-24T06:08:14;5.40;;;1.75;;
69703;SDS011;56967;43.538;-5.646;2022-09-24T06:10:41;4.53;;;1.40;;
69703;SDS011;56967;43.538;-5.646;2022-09-24T06:13:09;4.13;;;1.30;;
69703;SDS011;56967;43.538;-5.646;2022-09-24T06:15:41;2.60;;;1.30;;
69703;SDS011;56967;43.538;-5.646;2022-09-24T06:18:07;4.03;;;1.20;;
69703;SDS011;56967;43.538;-5.646;2022-09-24T06:20:33;2.83;;;1.10;;
69703;SDS011;56967;43.538;-5.646;2022-09-24T06:22:59;5.10;;;1.27;;
69703;SDS011;56967;43.538;-5.646;2022-09-24T06:25:25;3.35;;;1.20;;
69703;SDS011;56967;43.538;-5.646;2022-09-24T06:27:58;4.35;;;1.48;;
69703;SDS011;56967;43.538;-5.646;2022-09-24T06:30:29;3.55;;;1.05;;
69703;SDS011;56967;43.538;-5.646;2022-09-24T06:33:05;5.22;;;1.50;;
69703;SDS011;56967;43.538;-5.646;2022-09-24T06:35:33;1.45;;;0.90;;
69703;SDS011;56967;43.538;-5.646;2022-09-24T06:38:01;2.58;;;1.00;;
69703;SDS011;56967;43.538;-5.646;2022-09-24T06:40:29;2.47;;;0.90;;
69703;SDS011;56967;43.538;-5.646;2022-09-24T06:42:55;2.78;;;0.82;;
69703;SDS011;56967;43.538;-5.646;2022-09-24T06:45:21;2.83;;;0.82;;
69703;SDS011;56967;43.538;-5.646;2022-09-24T06:47:54;2.10;;;0.80;;
69703;SDS011;56967;43.538;-5.646;2022-09-24T06:50:21;2.53;;;0.85;;
69703;SDS011;56967;43.538;-5.646;2022-09-24T06:52:47;3.03;;;0.90;;
69703;SDS011;56967;43.538;-5.646;2022-09-24T06:55:13;3.97;;;1.00;;
69703;SDS011;56967;43.538;-5.646;2022-09-24T06:57:39;3.50;;;0.90;;
69703;SDS011;56967;43.538;-5.646;2022-09-24T07:00:05;3.33;;;0.80;;
69703;SDS011;56967;43.538;-5.646;2022-09-24T07:02:31;1.45;;;0.75;;
69703;SDS011;56967;43.538;-5.646;2022-09-24T07:04:56;2.28;;;0.90;;
69703;SDS011;56967;43.538;-5.646;2022-09-24T07:07:22;2.35;;;1.00;;
69703;SDS011;56967;43.538;-5.646;2022-09-24T07:09:54;3.38;;;1.20;;
69703;SDS011;56967;43.538;-5.646;2022-09-24T07:12:20;2.22;;;1.02;;
69703;SDS011;56967;43.538;-5.646;2022-09-24T07:14:46;4.18;;;1.35;;
69703;SDS011;56967;43.538;-5.646;2022-09-24T07:17:12;2.08;;;1.00;;
69703;SDS011;56967;43.538;-5.646;2022-09-24T07:19:38;3.47;;;1.40;;
69703;SDS011;56967;43.538;-5.646;2022-09-24T07:22:03;3.25;;;1.00;;
69703;SDS011;56967;43.538;-5.646;2022-09-24T07:24:29;3.45;;;1.50;;
69703;SDS011;56967;43.538;-5.646;2022-09-24T07:26:55;5.30;;;1.80;;
69703;SDS011;56967;43.538;-5.646;2022-09-24T07:29:21;2.97;;;1.80;;
69703;SDS011;56967;43.538;-5.646;2022-09-24T07:31:46;3.25;;;1.60;;
69703;SDS011;56967;43.538;-5.646;2022-09-24T07:34:12;3.00;;;1.30;;
69703;SDS011;56967;43.538;-5.646;2022-09-24T07:36:40;2.85;;;1.20;;
69703;SDS011;56967;43.538;-5.646;2022-09-24T07:39:06;3.08;;;1.25;;
69703;SDS011;56967;43.538;-5.646;2022-09-24T07:41:32;3.22;;;1.33;;
69703;SDS011;56967;43.538;-5.646;2022-09-24T07:43:58;1.45;;;1.00;;
69703;SDS011;56967;43.538;-5.646;2022-09-24T07:46:24;1.65;;;1.05;;
69703;SDS011;56967;43.538;-5.646;2022-09-24T07:48:53;2.20;;;1.40;;
69703;SDS011;56967;43.538;-5.646;2022-09-24T07:51:22;2.35;;;1.30;;
69703;SDS011;56967;43.538;-5.646;2022-09-24T07:53:49;8.85;;;3.22;;
69703;SDS011;56967;43.538;-5.646;2022-09-24T07:56:15;2.85;;;1.30;;
69703;SDS011;56967;43.538;-5.646;2022-09-24T07:58:41;4.22;;;1.23;;
69703;SDS011;56967;43.538;-5.646;2022-09-24T08:01:07;6.72;;;1.70;;
69703;SDS011;56967;43.538;-5.646;2022-09-24T08:03:33;4.18;;;1.80;;
69703;SDS011;56967;43.538;-5.646;2022-09-24T08:05:58;3.20;;;1.33;;
69703;SDS011;56967;43.538;-5.646;2022-09-24T08:08:25;6.05;;;1.33;;
69703;SDS011;56967;43.538;-5.646;2022-09-24T08:10:51;3.95;;;1.40;;
69703;SDS011;56967;43.538;-5.646;2022-09-24T08:13:17;2.92;;;1.00;;
69703;SDS011;56967;43.538;-5.646;2022-09-24T08:15:42;2.78;;;1.10;;
69703;SDS011;56967;43.538;-5.646;2022-09-24T08:18:08;3.85;;;1.00;;
69703;SDS011;56967;43.538;-5.646;2022-09-24T08:20:34;2.47;;;1.10;;
69703;SDS011;56967;43.538;-5.646;2022-09-24T08:23:02;3.42;;;1.20;;
69703;SDS011;56967;43.538;-5.646;2022-09-24T08:25:28;2.05;;;0.93;;
69703;SDS011;56967;43.538;-5.646;2022-09-24T08:27:55;3.55;;;1.15;;
69703;SDS011;56967;43.538;-5.646;2022-09-24T08:30:25;2.15;;;1.40;;
69703;SDS011;56967;43.538;-5.646;2022-09-24T08:32:51;3.83;;;1.60;;
69703;SDS011;56967;43.538;-5.646;2022-09-24T08:35:16;2.92;;;1.50;;
69703;SDS011;56967;43.538;-5.646;2022-09-24T08:37:42;3.80;;;1.58;;
69703;SDS011;56967;43.538;-5.646;2022-09-24T08:40:18;2.40;;;1.40;;
69703;SDS011;56967;43.538;-5.646;2022-09-24T08:43:13;2.97;;;1.67;;
69703;SDS011;56967;43.538;-5.646;2022-09-24T08:45:43;2.95;;;1.17;;
69703;SDS011;56967;43.538;-5.646;2022-09-24T08:48:32;3.22;;;1.52;;
69703;SDS011;56967;43.538;-5.646;2022-09-24T08:51:02;2.50;;;1.23;;
69703;SDS011;56967;43.538;-5.646;2022-09-24T08:53:37;2.95;;;1.25;;
69703;SDS011;56967;43.538;-5.646;2022-09-24T08:56:04;3.17;;;2.10;;
69703;SDS011;56967;43.538;-5.646;2022-09-24T08:58:33;2.33;;;1.15;;
69703;SDS011;56967;43.538;-5.646;2022-09-24T09:01:06;2.28;;;1.25;;
69703;SDS011;56967;43.538;-5.646;2022-09-24T09:09:15;2.78;;;1.30;;
69703;SDS011;56967;43.538;-5.646;2022-09-24T09:11:45;4.65;;;1.55;;
69703;SDS011;56967;43.538;-5.646;2022-09-24T09:16:56;3.38;;;1.40;;
69703;SDS011;56967;43.538;-5.646;2022-09-24T09:19:26;3.53;;;1.60;;
69703;SDS011;56967;43.538;-5.646;2022-09-24T09:21:59;3.25;;;1.30;;
69703;SDS011;56967;43.538;-5.646;2022-09-24T09:24:40;5.05;;;1.77;;
69703;SDS011;56967;43.538;-5.646;2022-09-24T09:27:16;6.03;;;1.92;;
69703;SDS011;56967;43.538;-5.646;2022-09-24T09:29:50;4.80;;;1.95;;
69703;SDS011;56967;43.538;-5.646;2022-09-24T09:35:16;6.05;;;2.30;;
69703;SDS011;56967;43.538;-5.646;2022-09-24T09:43:03;4.45;;;2.03;;
69703;SDS011;56967;43.538;-5.646;2022-09-24T09:48:27;5.15;;;1.90;;
69703;SDS011;56967;43.538;-5.646;2022-09-24T09:50:59;5.60;;;2.35;;
69703;SDS011;56967;43.538;-5.646;2022-09-24T09:53:30;4.63;;;1.80;;
69703;SDS011;56967;43.538;-5.646;2022-09-24T09:56:00;4.88;;;1.95;;
69703;SDS011;56967;43.538;-5.646;2022-09-24T09:58:39;5.30;;;1.70;;
69703;SDS011;56967;43.538;-5.646;2022-09-24T10:01:09;5.00;;;2.00;;
69703;SDS011;56967;43.538;-5.646;2022-09-24T10:06:10;8.60;;;1.92;;
69703;SDS011;56967;43.538;-5.646;2022-09-24T10:08:37;19.60;;;2.35;;
69703;SDS011;56967;43.538;-5.646;2022-09-24T10:11:04;6.63;;;1.80;;
69703;SDS011;56967;43.538;-5.646;2022-09-24T10:13:31;5.65;;;1.75;;
69703;SDS011;56967;43.538;-5.646;2022-09-24T10:15:58;5.88;;;1.50;;
69703;SDS011;56967;43.538;-5.646;2022-09-24T10:18:29;8.32;;;1.67;;
69703;SDS011;56967;43.538;-5.646;2022-09-24T10:20:58;7.13;;;2.00;;
69703;SDS011;56967;43.538;-5.646;2022-09-24T10:26:02;6.88;;;2.08;;
69703;SDS011;56967;43.538;-5.646;2022-09-24T10:28:29;4.75;;;1.30;;
69703;SDS011;56967;43.538;-5.646;2022-09-24T10:31:16;6.55;;;1.55;;
69703;SDS011;56967;43.538;-5.646;2022-09-24T10:33:46;6.05;;;1.40;;
69703;SDS011;56967;43.538;-5.646;2022-09-24T10:38:42;8.85;;;2.28;;
69703;SDS011;56967;43.538;-5.646;2022-09-24T10:41:25;11.63;;;2.13;;
69703;SDS011;56967;43.538;-5.646;2022-09-24T10:43:52;7.15;;;1.52;;
69703;SDS011;56967;43.538;-5.646;2022-09-24T10:46:32;8.50;;;1.50;;
69703;SDS011;56967;43.538;-5.646;2022-09-24T11:00:47;7.93;;;1.30;;
69703;SDS011;56967;43.538;-5.646;2022-09-24T11:03:25;9.98;;;1.60;;
69703;SDS011;56967;43.538;-5.646;2022-09-24T11:06:03;6.15;;;1.27;;
69703;SDS011;56967;43.538;-5.646;2022-09-24T11:16:48;7.05;;;1.10;;
69703;SDS011;56967;43.538;-5.646;2022-09-24T11:22:15;5.85;;;1.17;;
69703;SDS011;56967;43.538;-5.646;2022-09-24T11:24:57;4.32;;;1.25;;
69703;SDS011;56967;43.538;-5.646;2022-09-24T11:27:52;5.85;;;1.45;;
69703;SDS011;56967;43.538;-5.646;2022-09-24T11:30:19;4.40;;;1.30;;
69703;SDS011;56967;43.538;-5.646;2022-09-24T11:38:19;7.97;;;1.50;;
69703;SDS011;56967;43.538;-5.646;2022-09-24T11:55:03;5.57;;;1.10;;
69703;SDS011;56967;43.538;-5.646;2022-09-24T11:57:37;5.05;;;1.10;;
69703;SDS011;56967;43.538;-5.646;2022-09-24T12:00:10;5.90;;;1.35;;
69703;SDS011;56967;43.538;-5.646;2022-09-24T12:02:46;4.97;;;1.33;;
69703;SDS011;56967;43.538;-5.646;2022-09-24T12:10:27;3.72;;;1.00;;
69703;SDS011;56967;43.538;-5.646;2022-09-24T12:13:15;5.65;;;1.20;;
69703;SDS011;56967;43.538;-5.646;2022-09-24T12:18:44;6.40;;;1.50;;
69703;SDS011;56967;43.538;-5.646;2022-09-24T12:21:14;4.70;;;1.08;;
69703;SDS011;56967;43.538;-5.646;2022-09-24T12:23:45;8.48;;;1.40;;
69703;SDS011;56967;43.538;-5.646;2022-09-24T12:26:12;6.93;;;1.30;;
69703;SDS011;56967;43.538;-5.646;2022-09-24T12:28:54;6.95;;;1.40;;
69703;SDS011;56967;43.538;-5.646;2022-09-24T12:31:51;6.35;;;1.02;;
69703;SDS011;56967;43.538;-5.646;2022-09-24T12:37:12;6.97;;;1.33;;
69703;SDS011;56967;43.538;-5.646;2022-09-24T12:39:48;9.93;;;1.50;;
69703;SDS011;56967;43.538;-5.646;2022-09-24T12:42:22;8.75;;;1.50;;
69703;SDS011;56967;43.538;-5.646;2022-09-24T12:44:56;9.82;;;1.52;;
69703;SDS011;56967;43.538;-5.646;2022-09-24T12:47:25;7.47;;;1.55;;
69703;SDS011;56967;43.538;-5.646;2022-09-24T12:49:53;6.45;;;1.27;;
69703;SDS011;56967;43.538;-5.646;2022-09-24T12:52:36;9.10;;;1.40;;
69703;SDS011;56967;43.538;-5.646;2022-09-24T12:55:23;8.70;;;1.00;;
69703;SDS011;56967;43.538;-5.646;2022-09-24T12:58:00;5.13;;;1.50;;
69703;SDS011;56967;43.538;-5.646;2022-09-24T13:06:01;9.80;;;1.52;;
69703;SDS011;56967;43.538;-5.646;2022-09-24T13:08:36;10.00;;;1.60;;
69703;SDS011;56967;43.538;-5.646;2022-09-24T13:11:21;9.93;;;1.77;;
69703;SDS011;56967;43.538;-5.646;2022-09-24T13:14:39;12.55;;;1.77;;
69703;SDS011;56967;43.538;-5.646;2022-09-24T13:16:49;12.57;;;1.85;;
69703;SDS011;56967;43.538;-5.646;2022-09-24T13:24:49;12.40;;;1.75;;
69703;SDS011;56967;43.538;-5.646;2022-09-24T13:30:15;11.98;;;2.15;;
69703;SDS011;56967;43.538;-5.646;2022-09-24T13:35:38;9.45;;;1.85;;
69703;SDS011;56967;43.538;-5.646;2022-09-24T13:40:47;14.15;;;2.08;;
69703;SDS011;56967;43.538;-5.646;2022-09-24T13:46:06;6.68;;;1.48;;
69703;SDS011;56967;43.538;-5.646;2022-09-24T13:51:31;11.68;;;2.05;;
69703;SDS011;56967;43.538;-5.646;2022-09-24T13:59:41;11.07;;;1.67;;
69703;SDS011;56967;43.538;-5.646;2022-09-24T14:02:27;13.10;;;1.88;;
69703;SDS011;56967;43.538;-5.646;2022-09-24T14:04:56;7.57;;;1.10;;
69703;SDS011;56967;43.538;-5.646;2022-09-24T14:07:24;4.82;;;1.33;;
69703;SDS011;56967;43.538;-5.646;2022-09-24T14:10:02;5.43;;;1.48;;
69703;SDS011;56967;43.538;-5.646;2022-09-24T14:12:29;5.30;;;1.80;;
69703;SDS011;56967;43.538;-5.646;2022-09-24T14:14:55;5.43;;;1.55;;
69703;SDS011;56967;43.538;-5.646;2022-09-24T14:17:22;6.43;;;1.67;;
69703;SDS011;56967;43.538;-5.646;2022-09-24T14:19:53;3.72;;;1.50;;
69703;SDS011;56967;43.538;-5.646;2022-09-24T14:22:25;5.97;;;1.80;;
69703;SDS011;56967;43.538;-5.646;2022-09-24T14:25:16;8.13;;;1.40;;
69703;SDS011;56967;43.538;-5.646;2022-09-24T14:27:42;2.95;;;1.25;;
69703;SDS011;56967;43.538;-5.646;2022-09-24T14:30:24;8.70;;;1.40;;
69703;SDS011;56967;43.538;-5.646;2022-09-24T14:32:54;8.02;;;1.77;;
69703;SDS011;56967;43.538;-5.646;2022-09-24T14:35:29;4.57;;;1.40;;
69703;SDS011;56967;43.538;-5.646;2022-09-24T14:37:59;5.47;;;1.30;;
69703;SDS011;56967;43.538;-5.646;2022-09-24T14:46:05;4.05;;;1.20;;
69703;SDS011;56967;43.538;-5.646;2022-09-24T14:49:41;28.77;;;1.55;;
69703;SDS011;56967;43.538;-5.646;2022-09-24T14:52:04;4.07;;;1.00;;
69703;SDS011;56967;43.538;-5.646;2022-09-24T14:54:37;5.13;;;1.40;;
69703;SDS011;56967;43.538;-5.646;2022-09-24T14:59:41;2.42;;;0.70;;
69703;SDS011;56967;43.538;-5.646;2022-09-24T15:04:58;5.00;;;0.95;;
69703;SDS011;56967;43.538;-5.646;2022-09-24T15:07:27;5.82;;;1.20;;
69703;SDS011;56967;43.538;-5.646;2022-09-24T15:09:56;2.92;;;0.90;;
69703;SDS011;56967;43.538;-5.646;2022-09-24T15:12:27;3.20;;;0.80;;
69703;SDS011;56967;43.538;-5.646;2022-09-24T15:14:58;2.50;;;0.85;;
69703;SDS011;56967;43.538;-5.646;2022-09-24T15:17:29;3.17;;;1.00;;
69703;SDS011;56967;43.538;-5.646;2022-09-24T15:19:57;4.85;;;1.20;;
69703;SDS011;56967;43.538;-5.646;2022-09-24T15:22:24;3.97;;;0.90;;
69703;SDS011;56967;43.538;-5.646;2022-09-24T15:24:52;4.65;;;0.88;;
69703;SDS011;56967;43.538;-5.646;2022-09-24T15:27:25;3.95;;;0.90;;
69703;SDS011;56967;43.538;-5.646;2022-09-24T15:29:56;4.18;;;0.90;;
69703;SDS011;56967;43.538;-5.646;2022-09-24T15:32:26;2.92;;;0.80;;
69703;SDS011;56967;43.538;-5.646;2022-09-24T15:34:53;2.22;;;1.15;;
69703;SDS011;56967;43.538;-5.646;2022-09-24T15:37:25;3.80;;;0.98;;
69703;SDS011;56967;43.538;-5.646;2022-09-24T15:39:55;3.53;;;1.17;;
69703;SDS011;56967;43.538;-5.646;2022-09-24T15:42:31;6.20;;;1.00;;
69703;SDS011;56967;43.538;-5.646;2022-09-24T15:44:57;4.93;;;1.15;;
69703;SDS011;56967;43.538;-5.646;2022-09-24T15:47:23;3.50;;;1.23;;
69703;SDS011;56967;43.538;-5.646;2022-09-24T15:49:48;4.72;;;1.20;;
69703;SDS011;56967;43.538;-5.646;2022-09-24T15:52:15;3.45;;;1.25;;
69703;SDS011;56967;43.538;-5.646;2022-09-24T15:54:50;4.05;;;1.30;;
69703;SDS011;56967;43.538;-5.646;2022-09-24T15:57:26;3.25;;;1.23;;
69703;SDS011;56967;43.538;-5.646;2022-09-24T15:59:52;2.65;;;1.45;;
69703;SDS011;56967;43.538;-5.646;2022-09-24T16:02:28;3.65;;;1.33;;
69703;SDS011;56967;43.538;-5.646;2022-09-24T16:04:56;5.15;;;1.30;;
69703;SDS011;56967;43.538;-5.646;2022-09-24T16:07:23;4.40;;;1.15;;
69703;SDS011;56967;43.538;-5.646;2022-09-24T16:09:49;5.55;;;1.50;;
69703;SDS011;56967;43.538;-5.646;2022-09-24T16:12:15;5.03;;;1.40;;
69703;SDS011;56967;43.538;-5.646;2022-09-24T16:14:42;3.08;;;1.33;;
69703;SDS011;56967;43.538;-5.646;2022-09-24T16:17:08;6.32;;;1.10;;
69703;SDS011;56967;43.538;-5.646;2022-09-24T16:19:35;4.25;;;1.10;;
69703;SDS011;56967;43.538;-5.646;2022-09-24T16:22:01;4.18;;;1.17;;
69703;SDS011;56967;43.538;-5.646;2022-09-24T16:24:32;5.68;;;1.90;;
69703;SDS011;56967;43.538;-5.646;2022-09-24T16:26:58;6.38;;;1.60;;
69703;SDS011;56967;43.538;-5.646;2022-09-24T16:29:24;5.97;;;2.22;;
69703;SDS011;56967;43.538;-5.646;2022-09-24T16:31:50;5.10;;;1.90;;
69703;SDS011;56967;43.538;-5.646;2022-09-24T16:34:15;8.30;;;1.75;;
69703;SDS011;56967;43.538;-5.646;2022-09-24T16:36:41;2.45;;;1.25;;
69703;SDS011;56967;43.538;-5.646;2022-09-24T16:39:07;7.28;;;2.30;;
69703;SDS011;56967;43.538;-5.646;2022-09-24T16:41:33;5.63;;;1.73;;
69703;SDS011;56967;43.538;-5.646;2022-09-24T16:44:00;6.95;;;1.88;;
69703;SDS011;56967;43.538;-5.646;2022-09-24T16:46:26;4.53;;;1.30;;
69703;SDS011;56967;43.538;-5.646;2022-09-24T16:48:52;4.10;;;1.30;;
69703;SDS011;56967;43.538;-5.646;2022-09-24T16:51:18;4.85;;;1.10;;
69703;SDS011;56967;43.538;-5.646;2022-09-24T16:53:44;4.53;;;1.60;;
69703;SDS011;56967;43.538;-5.646;2022-09-24T16:56:15;2.85;;;1.50;;
69703;SDS011;56967;43.538;-5.646;2022-09-24T16:58:42;7.97;;;4.57;;
69703;SDS011;56967;43.538;-5.646;2022-09-24T17:01:09;3.42;;;1.80;;
69703;SDS011;56967;43.538;-5.646;2022-09-24T17:03:37;3.20;;;1.52;;
69703;SDS011;56967;43.538;-5.646;2022-09-24T17:06:03;3.90;;;1.83;;
69703;SDS011;56967;43.538;-5.646;2022-09-24T17:08:33;4.25;;;1.20;;
69703;SDS011;56967;43.538;-5.646;2022-09-24T17:11:18;3.38;;;1.30;;
69703;SDS011;56967;43.538;-5.646;2022-09-24T17:13:45;2.47;;;1.20;;